Thursday, November 23, 2017, 7:16 PM EST
Back to Local

KASH, Nashua, Boire Field Airport

Location: Nashua, NH, United States Lat: 42.782
Local Time: 7:16 PM EST ( 0:16 GMT) Lon: -71.515
Time Zone: US/Eastern Elev: 200 ft

Show me the last for .
Show Decoded

2017-11-23 18:56 METAR KASH 232356Z 00000KT 10SM CLR 01/M07 A2998 RMK AO2 SLP162 T00111072 10050
                 20011 50003 =
2017-11-23 17:56 METAR KASH 232256Z 00000KT 10SM CLR 01/M08 A2998 RMK AO2 SLP164 T00111083 =
2017-11-23 16:56 METAR KASH 232156Z 00000KT 10SM CLR 03/M09 A2998 RMK AO2 SLP163 T00281089 =
2017-11-23 15:56 METAR KASH 232056Z 29006KT 10SM CLR 04/M11 A2997 RMK AO2 SLP160 T00391106 56005
                 =
2017-11-23 14:56 METAR KASH 231956Z 29006KT 10SM CLR 04/M11 A2997 RMK AO2 SLP160 T00441106 =
2017-11-23 13:56 METAR KASH 231856Z 29006KT 10SM CLR 04/M10 A2998 RMK AO2 SLP162 T00441100 =
2017-11-23 11:56 METAR KASH 231656Z 31008KT 10SM CLR 03/M11 A3000 RMK AO2 SLP169 T00331106 =
2017-11-23 10:56 METAR KASH 231556Z 30010KT 10SM CLR 02/M09 A3001 RMK AO2 SLP175 T00171094 =
2017-11-23 09:56 METAR KASH 231456Z 30010KT 10SM CLR 01/M09 A3002 RMK AO2 SLP179 T00111094 56005
                 =
2017-11-23 08:56 METAR KASH 231356Z 30013KT 10SM CLR M01/M08 A3003 RMK AO2 SLP182 T10061078 =
2017-11-23 07:56 METAR KASH 231256Z 32011KT 10SM CLR M01/M07 A3003 RMK AO2 SLP179 T10111072 =
2017-11-23 06:56 METAR KASH 231156Z 31006KT 10SM CLR M02/M07 A3004 RMK AO2 SLP184 70036 T10171067
                 10011 21017 53016 =
2017-11-23 05:56 METAR KASH 231056Z AUTO 29005KT 10SM CLR M01/M06 A3002 RMK AO2 SLP178 T10111061
                 =
2017-11-23 04:56 METAR KASH 230956Z AUTO 31016G22KT 10SM CLR M01/M07 A2999 RMK AO2 SLP166
                 T10111067 =
2017-11-23 03:56 METAR KASH 230856Z AUTO 31011KT 10SM CLR M01/M06 A2999 RMK AO2 SLP168 T10061061
                 51011 =
2017-11-23 02:56 METAR KASH 230756Z AUTO 31009KT 10SM CLR M01/M06 A2998 RMK AO2 SLP162 T10061056
                 =
2017-11-23 00:56 METAR KASH 230556Z AUTO 30010G16KT 10SM CLR 01/M06 A2996 RMK AO2 SLP157
                 T00111056 10039 20011 53015 =
2017-11-22 23:56 METAR KASH 230456Z AUTO 30012G22KT 10SM SCT039 02/M05 A2995 RMK AO2 SLP153
                 T00171050 =
2017-11-22 22:56 METAR KASH 230356Z AUTO 31018G23KT 10SM SCT041 03/M04 A2992 RMK AO2 PK WND
                 31027/0303 SLP144 T00281044 400671011 =
2017-11-22 21:56 METAR KASH 230256Z AUTO 32018G27KT 10SM OVC039 03/M03 A2991 RMK AO2 PK WND
                 31027/0253 SLP141 T00331028 51009 =
2017-11-22 20:56 METAR KASH 230156Z 32012G20KT 10SM OVC033 04/M01 A2991 RMK AO2 SLP139 T00391011
                 =
2017-11-22 19:56 METAR KASH 230056Z 33008KT 10SM BKN030 OVC035 04/00 A2990 RMK AO2 SLP135
                 T00390000 =

Support USWX by starting your Amazon purchase here.